Time;durP1;ratioP1;P1;durP2;ratioP2;P2;SDS_P1;SDS_P2;PMS_P1;PMS_P2;Temp;Humidity;BMP_temperature;BMP_pressure;BME280_temperature;BME280_humidity;BME280_pressure;Samples;Min_cycle;Max_cycle;Signal;HPM_P1;HPM_P2
2022/01/13 00:01:26;;;;;;;25.35;14.48;;;;;;;0.25;76.19;101254.13;2624273;54;20071;-70
2022/01/13 00:03:58;;;;;;;29.00;15.07;;;;;;;0.39;76.51;101256.13;2625042;54;20034;-70
2022/01/13 00:06:28;;;;;;;24.02;14.95;;;;;;;0.45;76.33;101255.88;2624804;54;20038;-70
2022/01/13 00:08:58;;;;;;;22.63;13.80;;;;;;;0.45;76.45;101253.25;2624980;54;20045;-70
2022/01/13 00:11:29;;;;;;;20.83;12.65;;;;;;;0.51;76.36;101255.56;2626443;39;20466;-70
2022/01/13 00:14:22;;;;;;;21.60;13.23;;;;;;;0.59;76.34;101257.84;2624614;54;20042;-71
2022/01/13 00:20:10;;;;;;;21.38;12.50;;;;;;;0.69;76.25;101264.31;2625488;54;20030;-70
2022/01/13 00:25:53;;;;;;;18.05;11.52;;;;;;;0.75;75.20;101271.84;2623500;54;20022;-70
2022/01/13 00:28:23;;;;;;;16.08;11.27;;;;;;;0.79;75.35;101272.56;2624733;54;20138;-70
2022/01/13 00:30:55;;;;;;;17.15;10.88;;;;;;;0.69;75.17;101274.72;2625009;46;20054;-70
2022/01/13 00:33:26;;;;;;;17.90;11.60;;;;;;;0.66;75.03;101267.91;2625347;54;20093;-70
2022/01/13 00:36:00;;;;;;;19.88;12.45;;;;;;;0.75;75.31;101264.03;2624383;47;20035;-70
2022/01/13 00:38:31;;;;;;;19.85;11.88;;;;;;;0.75;75.04;101264.03;2625384;54;20042;-70
2022/01/13 00:41:01;;;;;;;20.48;12.65;;;;;;;0.70;74.38;101269.47;2625391;54;20030;-71
2022/01/13 00:43:31;;;;;;;17.33;11.82;;;;;;;0.57;74.51;101273.53;2625462;54;20034;-70
2022/01/13 00:46:01;;;;;;;20.55;12.85;;;;;;;0.53;75.13;101271.13;2625367;54;20026;-71
2022/01/13 00:48:31;;;;;;;18.55;12.52;;;;;;;0.52;74.69;101272.03;2625404;54;20102;-70
2022/01/13 00:51:03;;;;;;;21.23;12.73;;;;;;;0.48;75.03;101269.56;2625834;54;20038;-70
2022/01/13 00:53:33;;;;;;;17.50;12.20;;;;;;;0.40;75.20;101268.22;2624740;47;20035;-70
2022/01/13 00:56:02;;;;;;;20.88;14.07;;;;;;;0.36;75.32;101266.66;2625669;39;20478;-70
2022/01/13 00:58:34;;;;;;;22.33;13.30;;;;;;;0.46;75.83;101260.16;2626846;46;20042;-70
2022/01/13 01:01:06;;;;;;;19.33;12.20;;;;;;;0.55;75.46;101269.31;2625244;47;20138;-70
2022/01/13 01:03:37;;;;;;;19.05;11.93;;;;;;;0.64;75.59;101269.72;2625614;54;20058;-70
2022/01/13 01:06:09;;;;;;;21.77;13.85;;;;;;;0.67;75.42;101282.63;2625375;54;20038;-70
2022/01/13 01:08:40;;;;;;;23.25;14.20;;;;;;;0.70;75.80;101289.44;2625631;54;20038;-70
2022/01/13 01:11:10;;;;;;;21.25;14.82;;;;;;;0.72;75.76;101287.59;2625687;39;20442;-70
2022/01/13 01:13:39;;;;;;;22.35;15.55;;;;;;;0.66;75.78;101282.69;2625789;54;20073;-70
2022/01/13 01:16:11;;;;;;;25.23;15.98;;;;;;;0.70;76.12;101286.84;2626012;54;20049;-70
2022/01/13 01:18:52;;;;;;;33.45;17.20;;;;;;;0.77;76.16;101290.84;2623551;47;20034;-70
2022/01/13 01:21:50;;;;;;;35.00;18.20;;;;;;;0.85;76.35;101288.72;2626695;39;20450;-70
2022/01/13 01:27:17;;;;;;;32.75;19.98;;;;;;;0.97;76.51;101287.34;2623501;47;20042;-71
2022/01/13 01:29:53;;;;;;;41.00;21.63;;;;;;;1.01;76.41;101282.84;2624499;54;20035;-70
2022/01/13 01:32:24;;;;;;;35.00;19.05;;;;;;;0.96;76.15;101290.84;2624676;54;20049;-70
2022/01/13 01:35:01;;;;;;;34.92;20.05;;;;;;;0.90;76.80;101285.94;2624953;47;20035;-70
2022/01/13 01:37:33;;;;;;;33.75;20.02;;;;;;;0.90;77.22;101285.94;2625834;54;20034;-70
2022/01/13 01:40:03;;;;;;;33.90;19.15;;;;;;;0.88;76.86;101283.41;2625625;54;20545;-70
2022/01/13 01:42:37;;;;;;;;;;;;;;;0.97;77.73;101287.34;2625557;54;20031;-70
2022/01/13 01:45:09;;;;;;;32.80;19.65;;;;;;;1.02;77.81;101282.78;2625034;47;19973;-70
2022/01/13 01:47:39;;;;;;;35.63;18.15;;;;;;;1.10;77.41;101272.84;2625036;39;20451;-70
2022/01/13 01:50:18;;;;;;;32.97;18.10;;;;;;;1.17;77.64;101271.63;2625306;54;20038;-70
2022/01/13 01:52:52;;;;;;;29.42;18.20;;;;;;;1.26;77.78;101272.09;2625095;54;20034;-70
2022/01/13 01:55:23;;;;;;;30.48;19.63;;;;;;;1.31;77.56;101265.78;2625781;54;20054;-70
2022/01/13 01:57:58;;;;;;;32.42;18.88;;;;;;;1.30;77.14;101269.28;2624816;54;20019;-70
2022/01/13 02:00:28;;;;;;;28.63;18.30;;;;;;;1.37;77.39;101269.84;2622966;47;20118;-70
2022/01/13 02:02:58;;;;;;;30.02;17.88;;;;;;;1.37;77.21;101260.25;2622524;54;20102;-70
2022/01/13 02:05:27;;;;;;;26.98;16.65;;;;;;;1.39;77.47;101265.41;2622769;47;20560;-70
2022/01/13 02:08:00;;;;;;;27.55;16.42;;;;;;;1.40;77.57;101260.13;2623060;54;20039;-70
2022/01/13 02:10:30;;;;;;;28.42;17.92;;;;;;;1.37;77.21;101269.84;2623130;54;20030;-70
2022/01/13 02:13:05;;;;;;;31.33;18.00;;;;;;;1.21;76.96;101270.56;2622670;54;20026;-70
2022/01/13 02:15:47;;;;;;;31.10;17.70;;;;;;;1.14;77.75;101265.72;2623248;54;20026;-70
2022/01/13 02:18:17;;;;;;;28.67;17.65;;;;;;;1.18;77.70;101268.13;2624927;47;20037;-70
2022/01/13 02:20:56;;;;;;;26.38;17.70;;;;;;;1.27;78.31;101269.44;2625783;54;20038;-70
2022/01/13 02:23:31;;;;;;;34.13;19.15;;;;;;;1.24;77.80;101269.59;2625211;54;20026;-70
2022/01/13 02:26:01;;;;;;;28.08;16.95;;;;;;;1.17;77.91;101268.19;2624850;47;20041;-70
2022/01/13 02:28:32;;;;;;;30.25;17.50;;;;;;;1.23;78.36;101266.13;2625750;54;20030;-70
2022/01/13 02:31:01;;;;;;;25.17;14.98;;;;;;;1.20;78.02;101266.28;2626326;39;20473;-70
2022/01/13 02:33:31;;;;;;;25.77;16.58;;;;;;;1.22;78.16;101255.75;2624615;54;20030;-70
2022/01/13 02:36:04;;;;;;;30.02;17.95;;;;;;;1.34;78.44;101268.22;2624980;54;20094;-70
2022/01/13 02:38:34;;;;;;;24.92;15.10;;;;;;;1.37;78.46;101254.19;2624925;54;20574;-70
2022/01/13 02:41:04;;;;;;;25.05;15.60;;;;;;;1.37;78.08;101256.81;2625189;54;20030;-70
2022/01/13 02:43:34;;;;;;;21.63;14.35;;;;;;;1.32;77.72;101254.44;2625482;54;20054;-70
2022/01/13 02:46:18;;;;;;;25.70;16.17;;;;;;;1.33;77.84;101253.50;2624598;54;20422;-70
2022/01/13 02:48:49;;;;;;;24.77;15.20;;;;;;;1.41;78.38;101245.31;2625522;54;20102;-70
2022/01/13 02:51:21;;;;;;;24.75;16.55;;;;;;;1.42;78.18;101242.63;2624959;47;20580;-71
2022/01/13 02:53:51;;;;;;;27.60;16.45;;;;;;;1.42;78.04;101241.78;2624824;47;20038;-70
2022/01/13 02:56:21;;;;;;;23.90;15.90;;;;;;;1.43;77.76;101243.50;2624490;54;20041;-70
2022/01/13 02:58:50;;;;;;;25.75;17.13;;;;;;;1.47;78.18;101235.44;2625446;54;20039;-76
2022/01/13 03:01:20;;;;;;;23.73;16.08;;;;;;;1.49;78.15;101236.19;2625625;54;20070;-70
2022/01/13 03:03:50;;;;;;;23.48;15.48;;;;;;;1.52;77.76;101227.41;2625535;54;20026;-70
2022/01/13 03:06:31;;;;;;;24.90;15.25;;;;;;;1.58;77.75;101237.50;2625073;54;20026;-70
2022/01/13 03:09:01;;;;;;;29.95;17.75;;;;;;;1.50;77.35;101239.66;2624279;39;20450;-71
2022/01/13 03:11:34;;;;;;;26.75;17.42;;;;;;;1.47;77.50;101238.06;2625398;54;20069;-70
2022/01/13 03:14:05;;;;;;;28.48;15.93;;;;;;;1.45;77.74;101234.66;2625197;54;20031;-70
2022/01/13 03:16:35;;;;;;;22.02;14.50;;;;;;;1.59;78.19;101235.75;2625212;54;20034;-70
2022/01/13 03:19:05;;;;;;;26.02;17.17;;;;;;;1.59;77.73;101236.63;2625322;54;20031;-70
2022/01/13 03:21:37;;;;;;;29.17;16.27;;;;;;;1.47;77.34;101243.28;2625010;54;20026;-70
2022/01/13 03:24:10;;;;;;;26.17;16.83;;;;;;;1.40;77.46;101241.88;2624530;46;20030;-70
2022/01/13 03:26:41;;;;;;;29.58;17.30;;;;;;;1.38;77.78;101238.47;2624988;54;20038;-70
2022/01/13 03:29:22;;;;;;;24.85;15.77;;;;;;;1.39;77.93;101236.75;2624368;47;20125;-70
2022/01/13 03:31:52;;;;;;;24.95;15.60;;;;;;;1.42;78.15;101250.44;2624857;54;20557;-70
2022/01/13 03:34:21;;;;;;;23.23;15.88;;;;;;;1.40;78.12;101246.25;2624530;54;20030;-69
2022/01/13 03:36:53;;;;;;;22.55;15.05;;;;;;;1.42;78.31;101247.00;2624808;54;20041;-70
2022/01/13 03:39:23;;;;;;;27.40;16.13;;;;;;;1.38;77.88;101246.28;2625413;39;20252;-70
2022/01/13 03:41:53;;;;;;;22.35;15.27;;;;;;;1.39;78.47;101252.38;2624780;54;20030;-70
2022/01/13 03:44:29;;;;;;;26.85;16.83;;;;;;;1.45;78.52;101249.47;2629311;39;20457;-71
2022/01/13 03:47:02;;;;;;;26.75;16.60;;;;;;;1.52;78.52;101253.47;2624077;47;20033;-70
2022/01/13 03:49:32;;;;;;;30.05;17.63;;;;;;;1.52;78.20;101265.66;2624725;54;20019;-70
2022/01/13 03:52:55;;;;;;;30.08;18.15;;;;;;;1.42;78.10;101257.41;2624619;54;20019;-70
2022/01/13 03:55:55;;;;;;;30.58;17.60;;;;;;;1.44;78.20;101255.59;2623060;47;20546;-70
2022/01/13 03:59:00;;;;;;;25.98;17.58;;;;;;;1.47;78.07;101255.47;2622449;54;20026;-70
2022/01/13 04:01:44;;;;;;;;;;;;;;;1.43;77.83;101259.13;2623947;39;20414;-70
2022/01/13 04:04:17;;;;;;;27.67;17.20;;;;;;;1.34;77.92;101263.00;2624104;54;19954;-70
2022/01/13 04:06:48;;;;;;;30.80;17.85;;;;;;;1.19;78.76;101261.97;2624485;54;20046;-71
2022/01/13 04:09:38;;;;;;;28.42;17.27;;;;;;;1.23;78.71;101260.09;2623773;54;20030;-70
2022/01/13 04:12:10;;;;;;;30.85;19.98;;;;;;;1.29;78.71;101257.16;2624054;39;20402;-71
2022/01/13 04:14:58;;;;;;;32.50;19.92;;;;;;;1.40;79.13;101254.91;2624196;49;20030;-69
2022/01/13 04:17:29;;;;;;;32.25;20.13;;;;;;;1.50;78.56;101250.06;2624190;54;20037;-70
2022/01/13 04:20:01;;;;;;;36.30;20.77;;;;;;;1.44;78.37;101259.03;2622724;54;20550;-70
2022/01/13 04:22:31;;;;;;;41.25;20.67;;;;;;;1.34;78.11;101256.94;2621922;47;20034;-70
2022/01/13 04:25:01;;;;;;;29.83;18.80;;;;;;;1.28;78.65;101250.28;2622678;54;20034;-70
2022/01/13 04:27:37;;;;;;;32.58;20.00;;;;;;;1.30;78.59;101248.44;2622857;54;20030;-70
2022/01/13 04:32:51;;;;;;;31.40;17.50;;;;;;;1.23;78.97;101250.50;2624577;54;20601;-69
2022/01/13 04:35:23;;;;;;;29.52;18.77;;;;;;;1.36;79.43;101242.94;2624834;39;20108;-70
2022/01/13 04:37:53;;;;;;;31.65;19.02;;;;;;;1.48;79.05;101242.34;2624129;39;20371;-70
2022/01/13 04:40:22;;;;;;;34.03;19.75;;;;;;;1.45;78.74;101241.66;2623501;54;20030;-70
2022/01/13 04:42:55;;;;;;;31.38;20.33;;;;;;;1.32;78.41;101254.44;2623151;39;20427;-70
2022/01/13 04:45:26;;;;;;;26.40;16.73;;;;;;;1.29;78.86;101248.50;2622931;54;20030;-70
2022/01/13 04:47:57;;;;;;;31.30;18.92;;;;;;;1.20;78.83;101242.81;2622775;54;20038;-70
2022/01/13 04:50:30;;;;;;;26.95;16.40;;;;;;;1.26;79.02;101238.22;2623043;54;20031;-70
2022/01/13 04:52:59;;;;;;;32.50;16.35;;;;;;;1.25;79.37;101240.00;2622596;47;20045;-71
2022/01/13 04:55:32;;;;;;;26.25;16.45;;;;;;;1.27;79.12;101238.19;2623261;54;20033;-70
2022/01/13 04:58:02;;;;;;;24.08;15.52;;;;;;;1.29;79.35;101235.47;2623212;54;20585;-70
2022/01/13 05:00:33;;;;;;;26.33;16.55;;;;;;;1.36;79.19;101242.94;2623070;54;20041;-71
2022/01/13 05:03:03;;;;;;;29.77;17.58;;;;;;;1.37;78.69;101241.16;2623131;54;20030;-70
2022/01/13 05:05:35;;;;;;;32.92;19.15;;;;;;;1.34;78.76;101236.09;2623329;54;20568;-70
2022/01/13 05:08:05;;;;;;;25.92;14.95;;;;;;;1.27;78.54;101222.53;2621513;54;20035;-70
2022/01/13 05:10:34;;;;;;;24.35;15.60;;;;;;;1.26;79.17;101223.44;2622632;46;20070;-70
2022/01/13 05:13:09;;;;;;;31.05;16.27;;;;;;;1.30;78.84;101222.38;2625013;47;20035;-70
2022/01/13 05:18:44;;;;;;;28.38;16.80;;;;;;;1.17;79.45;101234.31;2625538;54;20038;-73
2022/01/13 05:21:23;;;;;;;26.98;16.77;;;;;;;1.34;79.70;101223.91;2625395;54;20038;-72
2022/01/13 05:23:54;;;;;;;26.83;16.67;;;;;;;1.38;79.59;101235.03;2626000;54;20603;-73
2022/01/13 05:26:25;;;;;;;25.05;14.90;;;;;;;1.45;79.20;101232.06;2626388;54;20055;-72
2022/01/13 05:28:55;;;;;;;31.80;18.95;;;;;;;1.47;78.74;101230.22;2626795;39;20448;-72
2022/01/13 05:31:25;;;;;;;30.67;17.35;;;;;;;1.32;78.62;101236.19;2625577;47;20035;-72
2022/01/13 05:33:54;;;;;;;32.08;18.10;;;;;;;1.09;78.64;101236.44;2625653;47;20054;-72
2022/01/13 05:36:27;;;;;;;31.38;17.23;;;;;;;0.99;79.48;101242.06;2625089;54;20027;-72
2022/01/13 05:38:56;;;;;;;31.90;16.98;;;;;;;1.03;79.56;101241.94;2623098;54;20030;-72
2022/01/13 05:41:26;;;;;;;28.95;17.17;;;;;;;1.04;79.80;101244.47;2622379;54;20026;-72
2022/01/13 05:43:55;;;;;;;32.60;18.17;;;;;;;1.07;79.18;101249.53;2621235;47;20526;-73
2022/01/13 05:46:25;;;;;;;34.88;17.75;;;;;;;1.01;79.78;101241.16;2619882;54;20042;-74
2022/01/13 05:48:55;;;;;;;35.40;18.65;;;;;;;0.96;80.03;101249.19;2620357;46;20034;-74
2022/01/13 05:51:27;;;;;;;30.45;19.23;;;;;;;1.09;80.24;101247.69;2622048;39;20399;-73
2022/01/13 05:53:57;;;;;;;29.83;16.90;;;;;;;1.26;80.23;101246.88;2621144;54;20030;-74
2022/01/13 05:56:26;;;;;;;31.15;18.25;;;;;;;1.31;79.31;101247.53;2620873;54;20030;-76
2022/01/13 05:58:56;;;;;;;35.33;19.73;;;;;;;1.29;79.25;101249.34;2620680;54;20070;-74
2022/01/13 06:01:26;;;;;;;31.05;19.30;;;;;;;1.27;79.38;101242.53;2620429;54;20034;-75
2022/01/13 06:03:56;;;;;;;34.05;19.35;;;;;;;1.22;79.46;101242.75;2619991;51;20026;-75
2022/01/13 06:06:29;;;;;;;33.17;18.85;;;;;;;1.13;79.31;101243.19;2620336;54;20100;-74
2022/01/13 06:08:58;;;;;;;33.28;20.38;;;;;;;1.08;79.62;101237.34;2620493;54;20026;-74
2022/01/13 06:11:37;;;;;;;36.53;19.90;;;;;;;1.06;79.41;101247.84;2619971;47;20034;-74
2022/01/13 06:14:07;;;;;;;34.83;19.27;;;;;;;1.07;79.60;101249.53;2620316;54;20548;-73
2022/01/13 06:16:37;;;;;;;34.13;19.25;;;;;;;1.17;80.36;101252.53;2620296;46;20061;-74
2022/01/13 06:19:06;;;;;;;33.45;20.08;;;;;;;1.28;79.81;101255.50;2621066;54;20589;-73
2022/01/13 06:21:38;;;;;;;36.13;20.35;;;;;;;1.33;80.10;101245.69;2620475;46;20063;-73
2022/01/13 06:24:08;;;;;;;34.00;21.60;;;;;;;1.44;79.91;101251.22;2620385;54;20038;-72
2022/01/13 06:26:38;;;;;;;34.95;20.75;;;;;;;1.59;79.81;101249.66;2619804;54;20042;-71
2022/01/13 06:29:08;;;;;;;35.67;20.73;;;;;;;1.67;79.16;101244.03;2620615;31;20486;-72
2022/01/13 06:31:37;;;;;;;34.80;21.20;;;;;;;1.48;77.98;101246.72;2619962;54;20565;-71
2022/01/13 06:34:07;;;;;;;32.90;20.33;;;;;;;1.34;78.56;101249.97;2619746;54;20030;-72
2022/01/13 06:36:39;;;;;;;34.42;19.73;;;;;;;1.36;79.13;101260.34;2619616;54;20034;-71
2022/01/13 06:39:09;;;;;;;37.40;21.92;;;;;;;1.42;79.60;101263.47;2619819;54;20042;-72
2022/01/13 06:41:40;;;;;;;36.15;21.48;;;;;;;1.45;79.26;101268.56;2620929;54;20558;-72
2022/01/13 06:44:09;;;;;;;37.50;23.23;;;;;;;1.37;79.25;101264.63;2620088;47;20022;-72
2022/01/13 06:46:39;;;;;;;37.97;22.08;;;;;;;1.37;79.08;101269.84;2622264;54;20103;-71
2022/01/13 06:49:09;;;;;;;33.78;22.00;;;;;;;1.41;78.81;101272.22;2621799;54;20044;-71
2022/01/13 06:51:41;;;;;;;40.20;20.90;;;;;;;1.28;78.66;101278.94;2619591;54;20039;-70
2022/01/13 06:54:11;;;;;;;30.70;18.27;;;;;;;1.17;78.96;101274.22;2620100;54;20034;-71
2022/01/13 06:56:40;;;;;;;32.58;19.30;;;;;;;1.32;79.62;101277.03;2618936;47;20027;-70
2022/01/13 06:59:13;;;;;;;31.45;18.70;;;;;;;1.44;79.36;101281.66;2619991;39;20412;-73
2022/01/13 07:01:43;;;;;;;34.38;20.80;;;;;;;1.45;78.73;101283.34;2620360;47;20023;-73
2022/01/13 07:04:14;;;;;;;35.63;22.40;;;;;;;1.32;78.87;101290.91;2619950;54;20038;-72
2022/01/13 07:06:48;;;;;;;37.33;20.77;;;;;;;1.21;78.63;101285.34;2622372;51;20038;-72
2022/01/13 07:09:20;;;;;;;33.03;19.55;;;;;;;1.14;78.76;101302.19;2626994;54;20031;-72
2022/01/13 07:11:51;;;;;;;32.13;18.85;;;;;;;0.95;78.84;101300.44;2627542;54;20027;-72
2022/01/13 07:14:20;;;;;;;31.83;18.75;;;;;;;0.94;79.22;101298.75;2627805;54;20023;-72
2022/01/13 07:16:50;;;;;;;33.22;19.60;;;;;;;1.05;79.93;101305.22;2627699;54;20046;-72
2022/01/13 07:19:20;;;;;;;35.35;20.42;;;;;;;1.10;79.85;101298.91;2627216;54;20034;-72
2022/01/13 07:21:52;;;;;;;38.00;23.40;;;;;;;1.14;79.61;101296.97;2628302;39;20528;-73
2022/01/13 07:24:22;;;;;;;33.95;20.63;;;;;;;1.09;79.58;101288.53;2627873;54;20034;-72
2022/01/13 07:26:52;;;;;;;34.00;20.48;;;;;;;1.14;79.64;101284.81;2627750;54;20553;-72
2022/01/13 07:29:22;;;;;;;34.90;21.05;;;;;;;1.24;79.50;101290.44;2624690;54;20029;-72
2022/01/13 07:31:52;;;;;;;34.42;19.55;;;;;;;1.24;79.29;101293.03;2619915;47;20074;-72
2022/01/13 07:34:21;;;;;;;41.15;23.35;;;;;;;1.26;79.17;101290.34;2619552;54;20034;-72
2022/01/13 07:36:53;;;;;;;46.53;26.50;;;;;;;1.28;79.57;101286.75;2619263;54;20047;-72
2022/01/13 07:39:23;;;;;;;38.63;23.02;;;;;;;1.29;79.37;101291.06;2618098;54;20553;-72
2022/01/13 07:41:53;;;;;;;42.65;22.80;;;;;;;1.19;79.36;101297.63;2619065;31;20539;-72
2022/01/13 07:44:22;;;;;;;42.58;23.05;;;;;;;1.12;79.37;101297.06;2618024;54;20045;-72
2022/01/13 07:46:52;;;;;;;47.83;25.00;;;;;;;1.07;79.53;101298.19;2618117;54;20585;-73
2022/01/13 07:49:21;;;;;;;41.42;23.67;;;;;;;1.03;79.19;101302.69;2618027;54;20034;-73
2022/01/13 07:51:54;;;;;;;46.38;23.75;;;;;;;1.02;79.00;101300.13;2617422;47;20030;-73
2022/01/13 07:54:25;;;;;;;40.60;23.45;;;;;;;0.99;79.53;101303.75;2618208;54;20134;-73
2022/01/13 07:56:59;;;;;;;49.58;27.20;;;;;;;1.02;79.28;101311.44;2618070;54;20632;-72
2022/01/13 07:59:30;;;;;;;51.20;25.48;;;;;;;1.06;79.61;101304.28;2617515;47;20038;-72
2022/01/13 08:02:01;;;;;;;46.95;24.90;;;;;;;1.10;79.87;101296.28;2618635;39;20419;-72
2022/01/13 08:04:31;;;;;;;44.22;23.58;;;;;;;1.13;79.86;101305.72;2618537;54;20045;-72
2022/01/13 08:07:04;;;;;;;41.22;23.15;;;;;;;1.11;79.89;101299.75;2618233;31;20492;-73
2022/01/13 08:09:33;;;;;;;38.75;21.58;;;;;;;1.18;80.09;101301.13;2617620;54;20078;-71
2022/01/13 08:12:03;;;;;;;31.73;19.42;;;;;;;1.18;79.36;101306.34;2619140;31;20528;-73
2022/01/13 08:14:33;;;;;;;39.72;19.23;;;;;;;1.20;79.46;101314.94;2618342;54;20026;-70
2022/01/13 08:17:03;;;;;;;31.80;19.13;;;;;;;1.28;79.40;101309.38;2618284;54;20031;-70
2022/01/13 08:19:45;;;;;;;34.80;20.42;;;;;;;1.35;79.46;101303.81;2618268;54;20026;-69
2022/01/13 08:22:19;;;;;;;37.35;20.58;;;;;;;1.43;79.54;101300.84;2618342;54;20022;-72
2022/01/13 08:24:48;;;;;;;34.95;21.73;;;;;;;1.48;79.42;101293.63;2618625;39;20433;-72
2022/01/13 08:27:18;;;;;;;42.13;23.27;;;;;;;1.49;78.94;101296.16;2617491;54;20034;-73
2022/01/13 08:29:48;;;;;;;39.30;22.17;;;;;;;1.44;78.60;101289.50;2619462;54;20042;-73
2022/01/13 08:32:18;;;;;;;42.00;24.63;;;;;;;1.48;79.03;101288.41;2619469;47;20030;-73
2022/01/13 08:34:48;;;;;;;39.70;24.25;;;;;;;1.56;78.91;101281.06;2619881;54;20565;-73
2022/01/13 08:37:20;;;;;;;39.55;22.48;;;;;;;1.54;78.38;101282.06;2619508;54;20038;-73
2022/01/13 08:39:50;;;;;;;42.17;24.05;;;;;;;1.51;78.10;101284.81;2619941;54;20046;-73
2022/01/13 08:42:20;;;;;;;40.45;23.45;;;;;;;1.36;78.30;101282.03;2620233;54;20629;-72
2022/01/13 08:44:49;;;;;;;37.58;21.13;;;;;;;1.34;78.68;101286.44;2625428;47;20082;-73
2022/01/13 08:47:19;;;;;;;47.83;23.05;;;;;;;1.29;78.84;101283.22;2628794;54;20035;-72
2022/01/13 08:49:49;;;;;;;40.25;23.63;;;;;;;1.30;78.20;101284.06;2627552;47;20057;-73
2022/01/13 08:52:23;;;;;;;41.33;23.05;;;;;;;1.20;78.59;101284.50;2627431;47;20074;-73
2022/01/13 08:54:55;;;;;;;41.92;22.90;;;;;;;1.11;78.41;101284.09;2627563;54;20035;-74
2022/01/13 08:57:25;;;;;;;44.35;23.00;;;;;;;1.07;78.60;101287.78;2626462;54;20039;-73
2022/01/13 08:59:54;;;;;;;41.78;21.67;;;;;;;1.08;79.13;101292.06;2627677;54;20050;-73
2022/01/13 09:02:24;;;;;;;38.53;22.40;;;;;;;1.11;78.96;101291.94;2627909;54;20030;-73
2022/01/13 09:04:54;;;;;;;44.03;23.15;;;;;;;1.18;79.02;101288.09;2628912;54;20051;-73
2022/01/13 09:07:26;;;;;;;38.70;23.83;;;;;;;1.19;78.48;101293.25;2623067;39;20422;-72
2022/01/13 09:10:06;;;;;;;41.60;23.33;;;;;;;1.13;78.38;101295.28;2621770;54;20074;-73
2022/01/13 09:12:36;;;;;;;39.53;22.27;;;;;;;1.10;78.96;101300.63;2622076;54;20030;-74
2022/01/13 09:15:17;;;;;;;45.38;22.75;;;;;;;1.13;78.74;101300.50;2622469;54;20094;-74
2022/01/13 09:17:51;;;;;;;45.42;22.35;;;;;;;1.10;79.26;101305.84;2620875;54;20050;-72
2022/01/13 09:20:22;;;;;;;45.75;22.23;;;;;;;1.15;79.08;101306.50;2620053;54;20045;-72
2022/01/13 09:22:55;;;;;;;45.78;23.30;;;;;;;1.21;78.89;101301.81;2619967;54;20039;-74
2022/01/13 09:25:24;;;;;;;45.90;23.90;;;;;;;1.24;78.68;101306.06;2620837;31;20534;-73
2022/01/13 09:27:54;;;;;;;45.50;23.17;;;;;;;1.35;79.04;101302.97;2619770;54;20034;-74
2022/01/13 09:30:25;;;;;;;44.83;24.35;;;;;;;1.46;79.02;101308.50;2619914;47;20039;-72
2022/01/13 09:32:54;;;;;;;49.15;26.25;;;;;;;1.52;78.78;101316.03;2619787;47;20074;-72
2022/01/13 09:35:24;;;;;;;58.78;27.70;;;;;;;1.48;78.80;101314.50;2619932;54;20034;-72
2022/01/13 09:37:57;;;;;;;56.55;27.90;;;;;;;1.47;78.58;101316.25;2618264;54;20050;-72
2022/01/13 09:40:27;;;;;;;59.42;29.17;;;;;;;1.48;78.41;101312.72;2618465;54;20050;-73
2022/01/13 09:42:57;;;;;;;63.65;30.20;;;;;;;1.45;78.47;101315.47;2618575;54;20026;-73
2022/01/13 09:45:27;;;;;;;44.97;25.02;;;;;;;1.53;78.44;101309.06;2618521;46;20022;-73
2022/01/13 09:47:57;;;;;;;54.22;27.08;;;;;;;1.52;78.33;101312.59;2617988;54;20034;-73
2022/01/13 09:50:27;;;;;;;53.13;25.35;;;;;;;1.52;78.55;101309.97;2618212;54;20030;-72
2022/01/13 09:52:59;;;;;;;52.08;26.52;;;;;;;1.51;77.87;101303.94;2618232;54;20054;-74
2022/01/13 09:55:29;;;;;;;54.45;24.83;;;;;;;1.44;78.15;101308.56;2617901;54;20027;-73
2022/01/13 09:58:03;;;;;;;59.72;27.08;;;;;;;1.40;78.70;101314.84;2618542;31;20506;-73
2022/01/13 10:00:33;;;;;;;55.60;28.30;;;;;;;1.48;78.16;101309.28;2617762;54;20163;-73
2022/01/13 10:03:12;;;;;;;54.00;26.38;;;;;;;1.45;78.08;101315.47;2617791;54;20042;-73
2022/01/13 10:05:50;;;;;;;53.42;26.17;;;;;;;1.44;78.26;101316.41;2618489;39;20518;-72
2022/01/13 10:08:23;;;;;;;59.20;26.17;;;;;;;1.28;78.38;101312.81;2618576;54;20030;-74
2022/01/13 10:10:53;;;;;;;46.10;22.77;;;;;;;1.30;78.51;101304.91;2620540;54;20051;-74
2022/01/13 10:13:40;;;;;;;50.33;27.13;;;;;;;1.51;78.84;101310.88;2621380;54;20037;-73
2022/01/13 10:18:52;;;;;;;44.55;22.60;;;;;;;1.44;77.37;101320.75;2621230;54;20038;-74
2022/01/13 10:21:22;;;;;;;45.40;21.40;;;;;;;1.35;77.50;101318.59;2623970;47;20034;-75
2022/01/13 10:24:12;;;;;;;41.38;21.77;;;;;;;1.33;77.80;101315.22;2622285;39;20504;-75
2022/01/13 10:26:57;;;;;;;43.90;22.38;;;;;;;1.47;77.85;101313.66;2622284;54;20034;-72
2022/01/13 10:29:38;;;;;;;51.55;24.75;;;;;;;1.40;77.38;101311.41;2621711;47;20035;-72
2022/01/13 10:32:09;;;;;;;54.10;25.88;;;;;;;1.43;77.83;101314.72;2622030;54;20026;-73
2022/01/13 10:34:41;;;;;;;46.47;24.48;;;;;;;1.54;77.97;101316.78;2622647;39;20725;-73
2022/01/13 10:37:14;;;;;;;51.70;24.63;;;;;;;1.70;78.25;101314.28;2619794;51;20031;-73
2022/01/13 10:40:07;;;;;;;61.88;27.65;;;;;;;1.65;77.41;101309.31;2618679;39;20449;-73
2022/01/13 10:45:33;;;;;;;60.90;28.55;;;;;;;1.54;77.82;101316.78;2618310;54;20031;-72
2022/01/13 10:48:05;;;;;;;58.85;27.95;;;;;;;1.67;77.77;101304.88;2617847;47;20035;-73
2022/01/13 10:50:36;;;;;;;58.10;26.90;;;;;;;1.80;77.86;101310.34;2618256;54;20030;-72
2022/01/13 10:53:09;;;;;;;64.90;27.77;;;;;;;1.78;77.37;101301.72;2618415;39;20466;-72
2022/01/13 10:55:44;;;;;;;62.17;26.20;;;;;;;1.67;76.97;101297.06;2618026;54;20116;-73
2022/01/13 10:58:16;;;;;;;56.38;27.58;;;;;;;1.73;77.64;101291.53;2617959;54;20069;-72
2022/01/13 11:00:47;;;;;;;49.95;24.95;;;;;;;1.90;77.20;101295.91;2618199;54;20022;-72
2022/01/13 11:03:19;;;;;;;41.53;23.02;;;;;;;1.99;77.14;101290.22;2617864;47;20145;-72
2022/01/13 11:05:51;;;;;;;34.28;20.85;;;;;;;2.17;77.21;101287.63;2617994;54;20038;-72
2022/01/13 11:08:30;;;;;;;37.15;21.45;;;;;;;2.21;76.42;101279.56;2618048;54;20034;-72
2022/01/13 11:11:04;;;;;;;34.85;20.50;;;;;;;2.29;76.38;101280.94;2617859;54;20091;-72
2022/01/13 11:13:39;;;;;;;33.47;19.13;;;;;;;2.31;75.71;101282.53;2618187;47;20045;-73
2022/01/13 11:16:08;;;;;;;31.80;18.55;;;;;;;2.35;76.07;101284.06;2621760;47;20560;-68
2022/01/13 11:18:38;;;;;;;34.17;19.90;;;;;;;2.40;75.95;101278.59;2625486;39;20476;-68
2022/01/13 11:21:08;;;;;;;29.80;18.85;;;;;;;2.44;75.56;101272.28;2623758;54;20045;-68
2022/01/13 11:23:40;;;;;;;26.48;17.33;;;;;;;2.43;75.49;101271.44;2623325;54;20022;-68
2022/01/13 11:26:14;;;;;;;30.67;18.80;;;;;;;2.52;75.08;101274.50;2623064;54;20027;-68
2022/01/13 11:28:44;;;;;;;32.00;18.35;;;;;;;2.50;74.98;101271.97;2622998;54;20026;-68
2022/01/13 11:31:14;;;;;;;30.58;18.88;;;;;;;2.55;74.77;101277.78;2623113;39;20387;-68
2022/01/13 11:33:44;;;;;;;28.95;17.98;;;;;;;2.53;74.55;101276.19;2623449;39;20391;-68
2022/01/13 11:36:14;;;;;;;31.13;17.83;;;;;;;2.64;75.26;101271.25;2622717;51;20042;-68
2022/01/13 17:17:03;;;;;;;28.58;15.88;;;;;;;2.76;75.31;101132.16;2619947;46;20065;-71
2022/01/13 17:19:33;;;;;;;31.83;16.83;;;;;;;2.78;75.48;101139.91;2619125;54;20573;-72
2022/01/13 17:22:22;;;;;;;31.65;18.98;;;;;;;2.78;75.33;101132.06;2618969;54;20034;-72
2022/01/13 17:24:52;;;;;;;38.38;21.23;;;;;;;2.79;75.07;101131.16;2619295;39;20312;-71
2022/01/13 17:27:22;;;;;;;32.60;20.63;;;;;;;2.78;75.13;101126.84;2618703;54;20026;-71
2022/01/13 17:29:53;;;;;;;32.28;18.73;;;;;;;2.70;75.15;101130.72;2618681;47;20030;-71
2022/01/13 17:32:28;;;;;;;31.85;19.55;;;;;;;2.65;75.22;101129.28;2619464;54;20041;-71
2022/01/13 17:34:58;;;;;;;32.72;19.02;;;;;;;2.66;75.66;101136.22;2619185;54;20030;-71
2022/01/13 17:37:27;;;;;;;29.67;18.60;;;;;;;2.66;75.58;101141.44;2618832;54;20082;-71
2022/01/13 17:39:57;;;;;;;29.52;17.52;;;;;;;2.64;75.54;101143.28;2618624;46;20046;-71